ジュノー の空港の天気 - METARとTAF

ジュノー国際空港 ( PAJN / JNU ) - アメリカ アラスカ州ジュノー
飛行場実況気象(Metar)
観測時間07/15 21:53 AKDT (07/16 05:53 UTC)
風向・風速東南東 8m/s 瞬間風速12m/s
視程9650m
天気現象弱い雨 もや
少しの雲 雲底高度 210m
全天の8割程度の雲 雲底高度 670m
全天を覆う雲 雲底高度 1830m
気温11.7℃
湿度93%
気圧1015.3hPa
METARPAJN 160553Z 11016G24KT 6SM -RA BR FEW007 BKN022 OVC060 12/11 A2998 RMK AO2 SLP153 P0000 60000 T01170106 10117 20117 56009
過去の天気等 Google飛行場航空写真 Wunderground天気予報

過去48時間のMETAR

飛行場予報(TAF)
発表時間: 7/15 21:28 AKDT (7/16 05:28 UTC)
予報対象時間: 15日22時 AKDT ~ 16日22時 AKDT
風向・風速東 8m/s 瞬間風速 13m/s
視程10km以上
天気現象弱い雨
少しの雲 雲底高度 150m
全天の8割程度の雲 雲底高度 610m
全天を覆う雲 雲底高度 1830m
16日1時 AKDT から
風向・風速東 5m/s
視程8050m
天気現象弱い雨 もや
少しの雲 雲底高度 150m
全天の8割程度の雲 雲底高度 610m
全天を覆う雲 雲底高度 1520m
16日14時 AKDT から
風向・風速東南東 5m/s
視程10km以上
天気現象弱いしゅう雨
全天の4割程度の雲 雲底高度 760m
全天を覆う雲 雲底高度 1520m
PAJN 160528Z 1606/1706 10015G25KT P6SM -RA FEW005 BKN020 OVC060
FM160900 10010KT 5SM -RA BR FEW005 BKN020 OVC050
FM162200 12010KT P6SM -SHRA SCT025 OVC050